createdAt,value
2022-10-12T00:01:13.488Z,9.40
2022-10-12T00:05:17.974Z,9.40
2022-10-12T00:09:20.497Z,9.30
2022-10-12T00:13:23.986Z,9.30
2022-10-12T00:17:27.551Z,9.30
2022-10-12T00:21:32.353Z,9.20
2022-10-12T00:25:39.869Z,9.20
2022-10-12T00:29:42.002Z,9.10
2022-10-12T00:33:47.626Z,9.10
2022-10-12T00:37:54.512Z,9.00
2022-10-12T00:41:59.074Z,9.00
2022-10-12T00:46:07.506Z,8.90
2022-10-12T00:50:29.887Z,8.70
2022-10-12T00:54:50.418Z,8.60
2022-10-12T00:58:55.524Z,8.50
2022-10-12T01:03:00.629Z,8.40
2022-10-12T01:07:02.756Z,8.40
2022-10-12T01:11:05.851Z,8.40
2022-10-12T01:15:11.334Z,8.40
2022-10-12T01:19:26.372Z,8.50
2022-10-12T01:28:57.958Z,8.40
2022-10-12T01:33:08.821Z,8.30
2022-10-12T01:37:59.113Z,8.30
2022-10-12T01:42:17.165Z,8.20
2022-10-12T01:46:19.920Z,8.20
2022-10-12T01:50:28.500Z,8.10
2022-10-12T01:54:43.794Z,8.10
2022-10-12T01:59:11.825Z,8.00
2022-10-12T02:03:26.189Z,8.00
2022-10-12T02:07:44.183Z,8.10
2022-10-12T02:11:53.341Z,8.20
2022-10-12T02:15:59.447Z,8.10
2022-10-12T02:20:04.560Z,8.00
2022-10-12T02:24:11.272Z,7.90
2022-10-12T02:28:20.268Z,7.80
2022-10-12T02:33:07.539Z,7.70
2022-10-12T02:37:45.418Z,7.70
2022-10-12T02:41:56.295Z,7.70
2022-10-12T02:46:21.071Z,7.70
2022-10-12T02:50:25.925Z,7.60
2022-10-12T02:54:31.223Z,7.60
2022-10-12T03:03:16.876Z,7.50
2022-10-12T03:07:20.513Z,7.50
2022-10-12T03:11:45.228Z,7.40
2022-10-12T03:16:09.502Z,7.40
2022-10-12T03:20:15.771Z,7.30
2022-10-12T03:24:40.178Z,7.30
2022-10-12T03:28:42.482Z,7.30
2022-10-12T03:32:45.909Z,7.40
2022-10-12T03:36:48.840Z,7.40
2022-10-12T03:40:51.184Z,7.30
2022-10-12T03:44:56.269Z,7.30
2022-10-12T03:49:02.459Z,7.30
2022-10-12T03:53:10.839Z,7.20
2022-10-12T03:57:14.098Z,7.20
2022-10-12T04:01:17.037Z,7.20
2022-10-12T04:05:20.581Z,7.10
2022-10-12T04:09:28.618Z,7.00
2022-10-12T04:13:55.685Z,7.00
2022-10-12T04:18:14.312Z,6.80
2022-10-12T04:26:45.422Z,6.60
2022-10-12T04:30:48.392Z,6.60
2022-10-12T04:34:58.744Z,6.60
2022-10-12T04:39:02.953Z,6.60
2022-10-12T04:43:10.944Z,6.60
2022-10-12T04:47:18.000Z,6.60
2022-10-12T04:51:22.281Z,6.70
2022-10-12T04:55:26.153Z,6.70
2022-10-12T04:59:31.896Z,6.70
2022-10-12T05:03:41.991Z,6.80
2022-10-12T05:07:47.317Z,6.80
2022-10-12T05:11:54.475Z,6.90
2022-10-12T05:16:04.549Z,6.90
2022-10-12T05:20:15.520Z,6.90
2022-10-12T05:24:21.224Z,6.90
2022-10-12T05:28:40.872Z,6.90
2022-10-12T05:32:45.297Z,6.90
2022-10-12T05:36:50.943Z,6.90
2022-10-12T05:41:00.174Z,7.10
2022-10-12T05:45:08.044Z,7.20
2022-10-12T05:49:15.392Z,7.20
2022-10-12T05:53:19.436Z,7.20
2022-10-12T05:57:24.929Z,7.30
2022-10-12T06:01:27.291Z,7.40
2022-10-12T06:05:35.308Z,7.50
2022-10-12T06:09:39.372Z,7.50
2022-10-12T06:13:45.490Z,7.50
2022-10-12T06:17:50.606Z,7.50
2022-10-12T06:22:06.440Z,7.50
2022-10-12T06:30:31.097Z,7.40
2022-10-12T06:34:46.850Z,7.40
2022-10-12T06:38:54.178Z,7.40
2022-10-12T06:47:19.925Z,7.40
2022-10-12T06:55:42.711Z,7.60
2022-10-12T06:59:47.554Z,7.60
2022-10-12T07:03:53.525Z,7.70
2022-10-12T07:08:13.117Z,7.90
2022-10-12T07:12:21.447Z,7.90
2022-10-12T07:16:24.215Z,8.10
2022-10-12T07:20:26.394Z,8.20
2022-10-12T07:24:49.152Z,8.30
2022-10-12T07:33:10.823Z,8.50
2022-10-12T07:37:16.165Z,8.60
2022-10-12T07:41:19.680Z,8.70
2022-10-12T07:45:23.770Z,8.80
2022-10-12T07:49:29.211Z,8.90
2022-10-12T07:53:33.743Z,9.10
2022-10-12T07:57:38.292Z,9.10
2022-10-12T08:01:41.745Z,9.10
2022-10-12T08:05:45.652Z,9.20
2022-10-12T08:09:52.489Z,9.40
2022-10-12T08:14:00.578Z,9.50
2022-10-12T08:18:04.521Z,9.50
2022-10-12T08:22:07.778Z,9.60
2022-10-12T08:26:36.499Z,9.80
2022-10-12T08:30:39.734Z,10.00
2022-10-12T08:34:50.618Z,10.00
2022-10-12T08:38:55.988Z,10.20
2022-10-12T08:43:25.136Z,10.30
2022-10-12T08:47:46.876Z,10.50
2022-10-12T08:51:54.794Z,10.70
2022-10-12T08:56:01.696Z,10.80
2022-10-12T09:00:05.955Z,10.80
2022-10-12T09:04:58.456Z,11.00
2022-10-12T09:09:15.724Z,11.20
2022-10-12T09:13:38.977Z,11.10
2022-10-12T09:17:56.763Z,11.10
2022-10-12T09:22:09.240Z,11.20
2022-10-12T09:26:20.513Z,11.40
2022-10-12T09:30:22.829Z,11.70
2022-10-12T09:34:25.491Z,11.80
2022-10-12T09:38:27.835Z,11.60
2022-10-12T09:42:35.286Z,11.60
2022-10-12T09:46:42.663Z,11.50
2022-10-12T09:50:52.511Z,11.30
2022-10-12T09:55:05.101Z,11.30
2022-10-12T09:59:36.467Z,11.40
2022-10-12T10:03:39.612Z,11.60
2022-10-12T10:07:41.665Z,11.90
2022-10-12T10:11:48.046Z,12.10
2022-10-12T10:16:04.726Z,12.20
2022-10-12T10:20:44.628Z,12.40
2022-10-12T10:25:00.394Z,12.60
2022-10-12T10:29:25.512Z,12.50
2022-10-12T10:33:28.194Z,12.70
2022-10-12T10:37:31.274Z,12.80
2022-10-12T10:41:39.580Z,12.90
2022-10-12T10:45:54.559Z,12.90
2022-10-12T10:50:03.458Z,13.10
2022-10-12T10:54:24.816Z,13.10
2022-10-12T10:58:49.678Z,13.20
2022-10-12T11:02:56.787Z,13.10
2022-10-12T11:07:06.772Z,13.20
2022-10-12T11:11:17.630Z,13.20
2022-10-12T11:15:28.767Z,13.30
2022-10-12T11:19:39.021Z,13.40
2022-10-12T11:23:51.593Z,13.50
2022-10-12T11:27:54.751Z,13.30
2022-10-12T11:32:03.766Z,13.10
2022-10-12T11:36:34.429Z,13.10
2022-10-12T11:41:13.755Z,13.00
2022-10-12T11:45:33.759Z,13.30
2022-10-12T11:49:59.572Z,13.70
2022-10-12T11:54:08.732Z,14.10
2022-10-12T11:58:56.010Z,14.40
2022-10-12T12:03:04.139Z,14.40
2022-10-12T12:07:43.690Z,14.70
2022-10-12T12:11:45.704Z,14.40
2022-10-12T12:15:47.879Z,14.50
2022-10-12T12:19:59.590Z,14.40
2022-10-12T12:24:16.316Z,14.60
2022-10-12T12:28:25.444Z,14.60
2022-10-12T12:32:45.458Z,14.50
2022-10-12T12:36:51.139Z,14.50
2022-10-12T12:41:15.224Z,14.60
2022-10-12T12:45:32.855Z,14.70
2022-10-12T12:49:37.905Z,14.50
2022-10-12T12:53:46.693Z,14.50
2022-10-12T12:58:17.400Z,14.50
2022-10-12T13:02:38.783Z,14.50
2022-10-12T13:07:01.902Z,14.50
2022-10-12T13:11:32.456Z,14.70
2022-10-12T13:15:59.451Z,14.40
2022-10-12T13:20:32.373Z,14.20
2022-10-12T13:24:53.982Z,14.10
2022-10-12T13:28:57.831Z,13.90
2022-10-12T13:33:32.336Z,13.70
2022-10-12T13:37:35.297Z,13.50
2022-10-12T13:41:40.363Z,13.30
2022-10-12T13:45:49.331Z,13.20
2022-10-12T13:49:52.334Z,13.30
2022-10-12T13:53:55.391Z,13.30
2022-10-12T13:57:58.253Z,13.60
2022-10-12T14:02:03.690Z,13.80
2022-10-12T14:06:23.390Z,13.80
2022-10-12T14:10:35.748Z,13.60
2022-10-12T14:14:43.838Z,13.50
2022-10-12T14:18:49.440Z,13.40
2022-10-12T14:22:52.493Z,13.40
2022-10-12T14:27:03.431Z,13.40
2022-10-12T14:31:06.653Z,13.40
2022-10-12T14:35:25.413Z,13.40
2022-10-12T14:39:27.831Z,13.50
2022-10-12T14:43:30.679Z,13.40
2022-10-12T14:47:38.587Z,13.20
2022-10-12T14:51:43.362Z,13.10
2022-10-12T14:55:45.381Z,12.90
2022-10-12T14:59:48.350Z,12.80
2022-10-12T15:03:53.254Z,12.60
2022-10-12T15:07:57.936Z,12.50
2022-10-12T15:12:01.258Z,12.40
2022-10-12T15:16:04.220Z,12.50
2022-10-12T15:20:08.457Z,12.60
2022-10-12T15:24:18.045Z,12.60
2022-10-12T15:28:26.711Z,12.50
2022-10-12T15:32:29.191Z,12.50
2022-10-12T15:36:32.995Z,12.40
2022-10-12T15:40:35.151Z,12.30
2022-10-12T15:44:41.456Z,12.30
2022-10-12T15:48:44.258Z,12.30
2022-10-12T15:52:47.515Z,12.20
2022-10-12T15:56:49.737Z,12.10
2022-10-12T16:00:52.220Z,12.00
2022-10-12T16:04:54.169Z,12.00
2022-10-12T16:08:56.310Z,11.80
2022-10-12T16:13:00.471Z,11.70
2022-10-12T16:17:06.935Z,11.50
2022-10-12T16:21:10.172Z,11.40
2022-10-12T16:25:14.457Z,11.30
2022-10-12T16:29:16.788Z,11.20
2022-10-12T16:33:19.616Z,11.00
2022-10-12T16:37:22.451Z,10.90
2022-10-12T16:41:29.176Z,10.80
2022-10-12T16:45:35.375Z,10.70
2022-10-12T16:49:38.961Z,10.60
2022-10-12T16:53:43.273Z,10.50
2022-10-12T16:57:45.829Z,10.40
2022-10-12T17:01:48.198Z,10.30
2022-10-12T17:06:01.104Z,10.20
2022-10-12T17:10:08.860Z,10.10
2022-10-12T17:14:17.906Z,10.10
2022-10-12T17:18:20.633Z,10.00
2022-10-12T17:22:24.337Z,9.90
2022-10-12T17:26:29.806Z,9.80
2022-10-12T17:30:32.986Z,9.80
2022-10-12T17:34:40.820Z,9.70
2022-10-12T17:38:44.833Z,9.70
2022-10-12T17:42:48.201Z,9.60
2022-10-12T17:46:53.873Z,9.60
2022-10-12T17:51:10.482Z,9.50
2022-10-12T17:55:29.900Z,9.50
2022-10-12T17:59:38.869Z,9.40
2022-10-12T18:03:44.393Z,9.30
2022-10-12T18:07:46.773Z,9.30
2022-10-12T18:11:52.766Z,9.20
2022-10-12T18:15:56.580Z,9.10
2022-10-12T18:20:00.493Z,9.10
2022-10-12T18:24:14.919Z,9.00
2022-10-12T18:28:23.588Z,9.00
2022-10-12T18:32:30.376Z,8.90
2022-10-12T18:36:33.226Z,8.90
2022-10-12T18:40:41.865Z,8.80
2022-10-12T18:44:45.958Z,8.80
2022-10-12T18:48:48.696Z,8.70
2022-10-12T18:52:53.451Z,8.70
2022-10-12T18:56:56.652Z,8.60
2022-10-12T19:01:00.170Z,8.60
2022-10-12T19:05:06.011Z,8.50
2022-10-12T19:09:14.000Z,8.50
2022-10-12T19:13:18.746Z,8.40
2022-10-12T19:17:22.361Z,8.40
2022-10-12T19:21:25.965Z,8.40
2022-10-12T19:25:31.304Z,8.30
2022-10-12T19:29:38.724Z,8.30
2022-10-12T19:33:44.588Z,8.20
2022-10-12T19:37:48.742Z,8.20
2022-10-12T19:41:55.558Z,8.10
2022-10-12T19:46:04.378Z,8.10
2022-10-12T19:50:10.191Z,8.10
2022-10-12T19:54:20.879Z,8.10
2022-10-12T19:58:27.349Z,8.10
2022-10-12T20:02:33.230Z,8.10
2022-10-12T20:06:42.120Z,8.10
2022-10-12T20:10:48.626Z,8.10
2022-10-12T20:15:02.151Z,8.10
2022-10-12T20:19:07.313Z,8.10
2022-10-12T20:23:36.824Z,8.00
2022-10-12T20:27:41.675Z,8.00
2022-10-12T20:31:45.414Z,7.90
2022-10-12T20:35:50.152Z,7.90
2022-10-12T20:39:54.707Z,7.90
2022-10-12T20:44:01.719Z,7.90
2022-10-12T20:48:05.518Z,7.90
2022-10-12T20:52:10.903Z,7.80
2022-10-12T20:56:15.412Z,7.80
2022-10-12T21:00:18.767Z,7.80
2022-10-12T21:04:22.834Z,7.80
2022-10-12T21:08:26.730Z,7.80
2022-10-12T21:12:29.146Z,7.70
2022-10-12T21:16:32.573Z,7.70
2022-10-12T21:20:35.020Z,7.70
2022-10-12T21:24:37.678Z,7.70
2022-10-12T21:28:40.170Z,7.70
2022-10-12T21:32:44.820Z,7.60
2022-10-12T21:36:50.289Z,7.60
2022-10-12T21:40:55.557Z,7.60
2022-10-12T21:44:58.841Z,7.60
2022-10-12T21:49:07.076Z,7.60
2022-10-12T21:53:13.998Z,7.50
2022-10-12T21:57:16.957Z,7.50
2022-10-12T22:01:24.533Z,7.50
2022-10-12T22:05:28.775Z,7.50
2022-10-12T22:09:31.403Z,7.50
2022-10-12T22:13:40.241Z,7.50
2022-10-12T22:17:45.430Z,7.50
2022-10-12T22:21:53.009Z,7.40
2022-10-12T22:26:05.608Z,7.40
2022-10-12T22:30:10.375Z,7.40
2022-10-12T22:34:13.649Z,7.40
2022-10-12T22:38:17.115Z,7.40
2022-10-12T22:42:26.035Z,7.40
2022-10-12T22:46:28.552Z,7.40
2022-10-12T22:50:33.412Z,7.40
2022-10-12T22:54:38.748Z,7.50
2022-10-12T22:58:41.171Z,7.50
2022-10-12T23:02:45.601Z,7.50
2022-10-12T23:06:49.133Z,7.50
2022-10-12T23:10:52.204Z,7.60
2022-10-12T23:14:54.922Z,7.70
2022-10-12T23:19:04.630Z,7.70
2022-10-12T23:23:07.157Z,7.80
2022-10-12T23:27:14.067Z,7.80
2022-10-12T23:31:24.327Z,7.70
2022-10-12T23:35:30.415Z,7.60
2022-10-12T23:39:38.710Z,7.50
2022-10-12T23:43:45.129Z,7.50
2022-10-12T23:47:50.346Z,7.40
2022-10-12T23:51:53.941Z,7.40
2022-10-12T23:56:00.782Z,7.30
